Time;durP1;ratioP1;P1;durP2;ratioP2;P2;SDS_P1;SDS_P2;PMS_P1;PMS_P2;Temp;Humidity;BMP_temperature;BMP_pressure;BME280_temperature;BME280_humidity;BME280_pressure;Samples;Min_cycle;Max_cycle;Signal;HPM_P1;HPM_P2
2022/09/25 00:01:13;;;;;;;40.10;21.67;;;8.40;99.90;;;;;;4980110;28;20232;-74
2022/09/25 00:03:40;;;;;;;37.97;21.00;;;8.50;99.90;;;;;;4996993;28;20593;-73
2022/09/25 00:06:11;;;;;;;35.83;19.93;;;8.50;99.90;;;;;;4988492;28;20953;-77
2022/09/25 00:08:39;;;;;;;31.47;18.90;;;8.50;99.90;;;;;;4996753;28;20195;-75
2022/09/25 00:11:12;;;;;;;34.17;18.07;;;8.60;99.90;;;;;;5014228;28;20188;-75
2022/09/25 00:13:40;;;;;;;33.63;18.20;;;8.60;99.90;;;;;;4977054;28;20204;-74
2022/09/25 00:16:10;;;;;;;31.70;17.83;;;8.50;99.90;;;;;;4976983;28;20558;-74
2022/09/25 00:21:27;;;;;;;31.37;15.93;;;8.50;99.90;;;;;;4994548;28;20228;-76
2022/09/25 00:23:54;;;;;;;31.00;17.30;;;8.50;99.90;;;;;;4977138;28;20203;-73
2022/09/25 00:26:20;;;;;;;29.73;15.77;;;8.50;99.90;;;;;;4977708;28;20619;-74
2022/09/25 00:28:56;;;;;;;27.80;16.43;;;8.50;99.90;;;;;;4982462;28;20205;-74
2022/09/25 00:31:23;;;;;;;30.37;16.07;;;8.50;99.90;;;;;;4994406;28;20224;-76
2022/09/25 00:33:52;;;;;;;31.40;16.43;;;8.40;99.90;;;;;;4994741;28;20635;-77
2022/09/25 00:36:19;;;;;;;32.10;16.83;;;8.40;99.90;;;;;;4990499;28;20231;-76
2022/09/25 00:38:47;;;;;;;30.47;16.93;;;8.40;99.90;;;;;;4996159;28;20203;-76
2022/09/25 00:41:19;;;;;;;28.47;15.87;;;8.40;99.90;;;;;;4996111;28;20227;-76
2022/09/25 00:43:49;;;;;;;29.27;16.17;;;8.40;99.90;;;;;;4977426;28;20228;-75
2022/09/25 00:46:17;;;;;;;30.20;16.83;;;8.50;99.90;;;;;;4976274;28;20207;-74
2022/09/25 00:49:11;;;;;;;31.20;16.60;;;8.30;99.90;;;;;;4976717;28;20197;-74
2022/09/25 00:51:47;;;;;;;30.00;15.83;;;8.20;99.90;;;;;;4969499;28;20197;-75
2022/09/25 00:54:30;;;;;;;26.13;14.87;;;8.20;99.90;;;;;;4976086;28;20260;-74
2022/09/25 00:57:05;;;;;;;25.20;14.50;;;8.20;99.90;;;;;;4990319;28;20682;-74
2022/09/25 00:59:37;;;;;;;26.03;15.37;;;8.20;99.90;;;;;;4995359;28;20583;-75
2022/09/25 01:02:13;;;;;;;26.97;14.90;;;8.20;99.90;;;;;;4995900;28;20196;-74
2022/09/25 01:04:44;;;;;;;28.13;15.30;;;8.20;99.90;;;;;;4995695;28;20563;-76
2022/09/25 01:07:13;;;;;;;28.70;15.17;;;8.10;99.90;;;;;;4995951;28;20200;-75
2022/09/25 01:09:44;;;;;;;27.90;14.77;;;8.10;99.90;;;;;;5013178;28;20200;-75
2022/09/25 01:12:11;;;;;;;26.17;15.07;;;8.10;99.90;;;;;;5013269;28;20208;-72
2022/09/25 01:14:40;;;;;;;27.10;15.50;;;8.10;99.90;;;;;;4995462;28;20200;-73
2022/09/25 01:17:10;;;;;;;28.33;16.13;;;8.10;99.90;;;;;;4995862;28;20672;-74
2022/09/25 01:20:05;;;;;;;25.33;14.80;;;8.10;99.90;;;;;;4995654;28;20200;-76
2022/09/25 01:22:50;;;;;;;27.30;14.77;;;8.00;99.90;;;;;;4995810;28;20299;-76
2022/09/25 01:25:55;;;;;;;25.97;15.17;;;8.00;99.90;;;;;;4995270;28;20200;-73
2022/09/25 01:28:49;;;;;;;25.60;14.93;;;8.00;99.90;;;;;;4995169;28;20205;-74
2022/09/25 01:31:31;;;;;;;26.53;15.33;;;8.00;99.90;;;;;;5012848;28;20223;-76
2022/09/25 01:34:19;;;;;;;26.40;14.93;;;7.90;99.90;;;;;;4995303;28;20192;-76
2022/09/25 01:37:03;;;;;;;29.97;15.07;;;7.90;99.90;;;;;;4995307;28;20211;-75
2022/09/25 01:39:37;;;;;;;29.03;16.57;;;7.90;99.90;;;;;;4995333;28;20192;-75
2022/09/25 01:42:19;;;;;;;28.90;16.33;;;8.00;99.90;;;;;;4995548;28;20188;-72
2022/09/25 01:45:01;;;;;;;32.33;16.97;;;7.90;99.90;;;;;;5012659;28;20199;-77
2022/09/25 01:47:29;;;;;;;28.57;16.23;;;7.90;99.90;;;;;;4995487;28;20207;-75
2022/09/25 01:50:04;;;;;;;28.20;16.87;;;7.90;99.90;;;;;;5012822;28;20211;-76
2022/09/25 01:52:36;;;;;;;29.73;17.23;;;7.90;99.90;;;;;;4995423;28;20676;-74
2022/09/25 01:55:25;;;;;;;29.57;16.80;;;7.80;99.90;;;;;;4995042;28;20211;-74
2022/09/25 01:58:02;;;;;;;29.70;17.57;;;7.80;99.90;;;;;;4979231;28;20532;-74
2022/09/25 02:00:31;;;;;;;34.30;18.47;;;7.70;99.90;;;;;;4994817;28;20226;-74
2022/09/25 02:03:11;;;;;;;37.57;21.03;;;7.70;99.90;;;;;;4995121;28;20286;-74
2022/09/25 02:06:00;;;;;;;42.43;21.93;;;7.60;99.90;;;;;;5015859;28;20287;-73
2022/09/25 02:08:38;;;;;;;36.73;21.60;;;7.70;99.90;;;;;;4998933;28;20186;-74
2022/09/25 02:11:07;;;;;;;41.70;21.97;;;7.60;99.90;;;;;;4983700;28;20707;-73
2022/09/25 02:13:52;;;;;;;40.10;22.93;;;7.60;99.90;;;;;;4996905;28;20243;-77
2022/09/25 02:16:26;;;;;;;42.77;21.87;;;7.50;99.90;;;;;;4979512;28;20200;-74
2022/09/25 02:22:23;;;;;;;44.00;21.97;;;7.50;99.90;;;;;;4981303;28;20268;-77
2022/09/25 02:25:11;;;;;;;40.60;22.50;;;7.40;99.90;;;;;;4955497;29;20682;-74
2022/09/25 02:27:38;;;;;;;39.13;22.80;;;7.40;99.90;;;;;;4955702;29;20193;-74
2022/09/25 02:30:06;;;;;;;43.23;22.90;;;7.30;99.90;;;;;;4955510;29;20256;-76
2022/09/25 02:32:32;;;;;;;41.93;23.07;;;7.40;99.90;;;;;;4939600;29;20301;-75
2022/09/25 02:35:00;;;;;;;43.43;23.17;;;7.30;99.90;;;;;;4955506;29;20307;-78
2022/09/25 02:37:28;;;;;;;42.23;23.33;;;7.30;99.90;;;;;;4939560;29;20272;-76
2022/09/25 02:40:00;;;;;;;44.87;23.53;;;7.20;99.90;;;;;;4955676;28;20638;-75
2022/09/25 02:42:54;;;;;;;45.37;24.47;;;7.20;99.90;;;;;;4955696;29;20222;-75
2022/09/25 02:45:39;;;;;;;44.17;25.43;;;7.20;99.90;;;;;;4939041;29;20224;-74
2022/09/25 02:48:23;;;;;;;42.37;24.83;;;7.10;99.90;;;;;;4955333;29;20251;-74
2022/09/25 02:51:27;;;;;;;46.70;25.37;;;7.10;99.90;;;;;;4955457;29;20658;-74
2022/09/25 02:54:19;;;;;;;48.37;26.37;;;7.10;99.90;;;;;;4955278;29;20202;-73
2022/09/25 02:57:11;;;;;;;47.97;25.90;;;7.10;99.90;;;;;;4955285;29;20206;-73
2022/09/25 02:59:46;;;;;;;47.37;26.07;;;7.00;99.90;;;;;;4878881;29;20212;-74
2022/09/25 03:02:15;;;;;;;49.67;27.40;;;7.00;99.90;;;;;;4882059;29;20689;-73
2022/09/25 03:04:47;;;;;;;48.23;27.20;;;7.00;99.90;;;;;;4882214;29;20302;-74
2022/09/25 03:07:18;;;;;;;54.03;27.17;;;7.00;99.90;;;;;;4882275;29;20203;-74
2022/09/25 03:09:48;;;;;;;48.37;26.43;;;6.80;99.90;;;;;;4897018;29;20204;-76
2022/09/25 03:12:15;;;;;;;47.40;26.20;;;6.80;99.90;;;;;;4897873;29;20563;-74
2022/09/25 03:14:42;;;;;;;50.77;28.07;;;6.80;99.90;;;;;;4881703;29;20741;-78
2022/09/25 03:17:10;;;;;;;48.17;27.40;;;7.00;99.90;;;;;;4897896;29;20218;-77
2022/09/25 03:19:37;;;;;;;50.00;27.50;;;7.00;99.90;;;;;;4897926;29;20579;-77
2022/09/25 03:22:04;;;;;;;46.83;26.73;;;7.00;99.90;;;;;;4897471;29;20232;-75
2022/09/25 03:24:31;;;;;;;50.73;26.63;;;7.00;99.90;;;;;;4897582;29;20646;-79
2022/09/25 03:26:58;;;;;;;46.20;26.80;;;7.00;99.90;;;;;;4897728;29;20210;-75
2022/09/25 03:29:24;;;;;;;45.37;24.57;;;6.90;99.90;;;;;;4897218;29;20251;-75
2022/09/25 03:31:51;;;;;;;45.37;26.10;;;6.90;99.90;;;;;;4881934;29;20757;-76
2022/09/25 03:34:18;;;;;;;46.03;25.50;;;6.80;99.90;;;;;;4905431;29;20214;-77
2022/09/25 03:36:46;;;;;;;46.77;25.30;;;6.80;99.90;;;;;;4967669;28;20580;-77
2022/09/25 03:39:19;;;;;;;43.90;24.17;;;6.80;99.90;;;;;;4997238;28;20641;-75
2022/09/25 03:41:49;;;;;;;41.63;25.17;;;6.80;99.90;;;;;;5014988;28;20249;-73
2022/09/25 03:44:16;;;;;;;44.33;24.50;;;6.70;99.90;;;;;;5014616;28;20192;-73
2022/09/25 03:46:43;;;;;;;43.07;24.50;;;6.80;99.90;;;;;;4997135;28;20208;-74
2022/09/25 03:49:11;;;;;;;43.03;24.43;;;6.70;99.90;;;;;;4997337;28;20323;-74
2022/09/25 03:51:38;;;;;;;43.33;24.50;;;6.70;99.90;;;;;;4997316;28;20200;-76
2022/09/25 03:54:14;;;;;;;41.27;23.83;;;6.70;99.90;;;;;;5014515;28;20250;-75
2022/09/25 03:56:44;;;;;;;44.53;24.10;;;6.70;99.90;;;;;;5014365;28;20207;-74
2022/09/25 03:59:11;;;;;;;47.00;23.87;;;6.70;99.90;;;;;;4990100;28;20672;-76
2022/09/25 04:01:38;;;;;;;40.77;23.50;;;6.80;99.90;;;;;;4994552;28;20310;-73
2022/09/25 04:04:05;;;;;;;45.40;24.53;;;6.70;99.90;;;;;;4994680;28;20185;-75
2022/09/25 04:06:32;;;;;;;41.50;24.63;;;6.70;99.90;;;;;;4977334;28;20593;-74
2022/09/25 04:08:59;;;;;;;42.27;25.20;;;6.70;99.90;;;;;;4977384;28;20255;-74
2022/09/25 04:11:26;;;;;;;43.03;23.90;;;6.70;99.90;;;;;;4977070;28;20212;-74
2022/09/25 04:13:56;;;;;;;41.20;24.73;;;6.80;99.90;;;;;;4977683;28;20244;-75
2022/09/25 04:16:23;;;;;;;43.27;25.73;;;6.80;99.90;;;;;;4994401;28;20687;-75
2022/09/25 04:18:50;;;;;;;42.03;25.43;;;6.80;99.90;;;;;;4994564;28;20189;-76
2022/09/25 04:21:17;;;;;;;40.70;25.10;;;6.80;99.90;;;;;;4994142;28;20213;-74
2022/09/25 04:24:47;;;;;;;41.80;24.93;;;6.80;99.90;;;;;;4994543;28;20185;-74
2022/09/25 04:26:31;;;;;;;44.17;25.23;;;6.80;99.90;;;;;;4976356;28;20192;-75
2022/09/25 04:29:00;;;;;;;38.77;24.03;;;6.80;99.90;;;;;;4994485;28;20196;-75
2022/09/25 04:31:28;;;;;;;39.83;24.20;;;6.80;99.90;;;;;;4976657;28;20221;-75
2022/09/25 04:33:55;;;;;;;41.70;25.13;;;6.70;99.90;;;;;;4994353;28;20193;-77
2022/09/25 04:36:22;;;;;;;39.60;24.17;;;6.70;99.90;;;;;;4976962;28;20200;-74
2022/09/25 04:38:48;;;;;;;37.70;24.47;;;6.70;99.90;;;;;;4976598;28;20216;-77
2022/09/25 04:41:18;;;;;;;39.33;25.07;;;6.80;99.90;;;;;;4994150;28;20214;-75
2022/09/25 04:43:45;;;;;;;42.37;25.20;;;6.80;99.90;;;;;;4976685;28;20228;-74
2022/09/25 04:46:13;;;;;;;41.77;25.43;;;6.80;99.90;;;;;;4976552;28;20194;-77
2022/09/25 04:48:47;;;;;;;41.73;25.30;;;6.80;99.90;;;;;;4976589;28;20202;-77
2022/09/25 04:51:14;;;;;;;41.83;24.40;;;6.80;99.90;;;;;;4976951;28;20210;-74
2022/09/25 04:53:41;;;;;;;39.90;24.40;;;6.80;99.90;;;;;;4976536;28;20266;-75
2022/09/25 04:56:12;;;;;;;42.13;24.53;;;6.90;99.90;;;;;;4976229;28;20200;-74
2022/09/25 04:58:46;;;;;;;40.80;25.10;;;6.90;99.90;;;;;;4976630;28;20241;-74
2022/09/25 05:01:16;;;;;;;42.73;25.37;;;6.90;99.90;;;;;;4976292;28;20669;-77
2022/09/25 05:03:43;;;;;;;44.47;26.03;;;6.90;99.90;;;;;;4976510;28;20204;-74
2022/09/25 05:06:10;;;;;;;44.13;25.73;;;6.90;99.90;;;;;;4993653;28;20191;-74
2022/09/25 05:08:36;;;;;;;43.97;26.30;;;6.90;99.90;;;;;;4976207;28;20216;-75
2022/09/25 05:11:04;;;;;;;42.83;26.70;;;6.90;99.90;;;;;;4976551;28;20240;-73
2022/09/25 05:13:37;;;;;;;43.33;27.80;;;7.00;99.90;;;;;;4991254;28;20208;-74
2022/09/25 05:16:04;;;;;;;42.33;26.70;;;7.00;99.90;;;;;;4995610;28;20668;-76
2022/09/25 05:18:31;;;;;;;45.10;27.67;;;7.00;99.90;;;;;;4995460;28;20254;-76
2022/09/25 05:21:02;;;;;;;45.17;29.03;;;7.00;99.90;;;;;;5012850;28;20219;-76
2022/09/25 05:23:29;;;;;;;50.77;29.03;;;7.00;99.90;;;;;;4995846;28;20649;-75
2022/09/25 05:26:02;;;;;;;49.87;28.87;;;7.00;99.90;;;;;;5013179;28;20533;-75
2022/09/25 05:28:30;;;;;;;46.30;29.07;;;7.00;99.90;;;;;;5013152;28;20638;-75
2022/09/25 05:31:01;;;;;;;45.77;29.73;;;7.00;99.90;;;;;;4995259;28;20693;-75
2022/09/25 05:33:32;;;;;;;45.53;30.50;;;7.10;99.90;;;;;;4995385;28;20246;-74
2022/09/25 05:36:04;;;;;;;50.23;30.63;;;7.10;99.90;;;;;;4995289;28;20242;-73
2022/09/25 05:38:32;;;;;;;46.40;29.27;;;7.10;99.90;;;;;;4995595;28;20570;-74
2022/09/25 05:41:07;;;;;;;50.27;29.53;;;7.10;99.90;;;;;;4999568;28;20205;-73
2022/09/25 05:43:42;;;;;;;43.87;28.83;;;7.20;99.90;;;;;;4999220;28;20202;-78
2022/09/25 05:46:10;;;;;;;46.57;28.07;;;7.20;99.90;;;;;;4998964;28;20743;-73
2022/09/25 05:48:37;;;;;;;46.53;28.13;;;7.20;99.90;;;;;;4999361;28;20205;-76
2022/09/25 05:51:05;;;;;;;49.57;28.23;;;7.30;99.90;;;;;;4999995;28;20196;-75
2022/09/25 05:53:32;;;;;;;41.10;26.33;;;7.40;99.90;;;;;;5016865;28;20214;-79
2022/09/25 05:56:00;;;;;;;45.40;26.20;;;7.50;99.90;;;;;;4999104;28;20203;-79
2022/09/25 05:58:29;;;;;;;41.63;26.00;;;7.60;99.90;;;;;;4999540;28;20211;-78
2022/09/25 06:01:02;;;;;;;41.73;25.57;;;7.70;99.90;;;;;;4998819;28;20298;-76
2022/09/25 06:03:29;;;;;;;40.77;25.00;;;7.70;99.90;;;;;;4998776;28;20283;-75
2022/09/25 06:05:58;;;;;;;40.23;24.57;;;7.80;99.90;;;;;;5016468;28;20192;-74
2022/09/25 06:08:26;;;;;;;38.57;23.97;;;7.90;99.90;;;;;;4999158;28;20696;-76
2022/09/25 06:10:54;;;;;;;49.37;25.17;;;7.90;99.90;;;;;;4998872;28;20200;-75
2022/09/25 06:13:22;;;;;;;37.33;24.67;;;8.00;99.90;;;;;;4989488;28;20619;-75
2022/09/25 06:15:51;;;;;;;37.53;23.43;;;8.10;99.90;;;;;;4979218;28;20192;-75
2022/09/25 06:18:22;;;;;;;35.27;23.50;;;8.20;99.90;;;;;;4979211;28;20598;-75
2022/09/25 06:20:51;;;;;;;37.03;23.07;;;8.30;99.90;;;;;;4979201;28;20228;-75
2022/09/25 06:23:18;;;;;;;35.70;22.83;;;8.40;99.90;;;;;;4995469;28;20708;-76
2022/09/25 06:25:45;;;;;;;37.50;22.60;;;8.50;99.90;;;;;;5002963;28;20211;-76
2022/09/25 06:28:12;;;;;;;33.67;22.20;;;8.60;99.90;;;;;;5016219;28;20526;-75
2022/09/25 06:30:39;;;;;;;35.03;21.13;;;8.70;99.90;;;;;;4985023;28;20249;-76
2022/09/25 06:33:11;;;;;;;33.63;21.23;;;8.80;99.90;;;;;;4996126;28;20642;-76
2022/09/25 06:35:48;;;;;;;37.17;21.40;;;9.00;99.90;;;;;;4978720;28;20870;-78
2022/09/25 06:38:16;;;;;;;31.97;20.13;;;9.10;99.90;;;;;;4996614;28;20177;-76
2022/09/25 06:40:43;;;;;;;32.70;20.63;;;9.10;99.90;;;;;;4978687;28;20255;-76
2022/09/25 06:43:15;;;;;;;32.50;21.00;;;9.20;99.90;;;;;;4979172;28;20316;-77
2022/09/25 06:45:43;;;;;;;35.93;23.00;;;9.20;99.90;;;;;;4978645;28;20547;-75
2022/09/25 06:48:16;;;;;;;33.13;22.50;;;9.20;99.90;;;;;;4996110;28;20212;-78
2022/09/25 06:50:52;;;;;;;33.03;22.77;;;9.20;99.90;;;;;;4978528;28;20209;-76
2022/09/25 06:53:21;;;;;;;34.70;20.80;;;9.30;99.90;;;;;;4978611;28;20200;-75
2022/09/25 06:55:49;;;;;;;32.20;21.23;;;9.40;99.90;;;;;;4978865;28;20193;-75
2022/09/25 06:58:19;;;;;;;31.97;20.87;;;9.40;99.90;;;;;;4995925;28;20195;-76
2022/09/25 07:00:48;;;;;;;33.10;21.50;;;9.60;99.90;;;;;;4978573;28;20653;-74
2022/09/25 07:06:02;;;;;;;31.53;20.67;;;9.70;99.90;;;;;;4978451;28;20197;-74
2022/09/25 07:08:29;;;;;;;32.60;20.47;;;9.80;99.90;;;;;;4978603;28;20678;-74
2022/09/25 07:11:00;;;;;;;31.87;20.57;;;9.80;99.90;;;;;;4978645;28;20673;-75
2022/09/25 07:13:31;;;;;;;34.37;20.23;;;9.80;99.90;;;;;;4995734;28;20530;-78
2022/09/25 07:16:00;;;;;;;33.53;19.27;;;9.90;99.90;;;;;;4978268;28;20635;-77
2022/09/25 07:18:28;;;;;;;34.00;21.27;;;10.00;99.90;;;;;;4977769;28;20204;-77
2022/09/25 07:21:00;;;;;;;31.67;20.30;;;10.00;99.90;;;;;;4978218;28;20220;-76
2022/09/25 07:23:29;;;;;;;29.20;19.67;;;10.00;99.90;;;;;;4994615;28;20332;-76
2022/09/25 07:26:12;;;;;;;33.20;20.07;;;10.10;99.90;;;;;;4995369;28;20709;-76
2022/09/25 07:28:41;;;;;;;30.93;19.93;;;10.10;99.90;;;;;;4985746;28;20653;-75
2022/09/25 07:31:18;;;;;;;30.60;19.57;;;10.20;99.90;;;;;;4997088;28;20224;-78
2022/09/25 07:33:45;;;;;;;31.33;20.13;;;10.30;99.90;;;;;;4981029;28;20233;-77
2022/09/25 07:36:14;;;;;;;31.43;19.83;;;10.40;99.90;;;;;;4997385;28;20192;-78
2022/09/25 07:38:41;;;;;;;34.60;20.13;;;10.50;99.90;;;;;;4997398;28;20550;-75
2022/09/25 07:41:12;;;;;;;32.70;20.13;;;10.70;99.90;;;;;;4997682;28;20185;-75
2022/09/25 07:43:42;;;;;;;34.30;20.73;;;10.80;99.90;;;;;;4997073;28;20196;-75
2022/09/25 07:46:09;;;;;;;32.53;21.10;;;10.90;99.90;;;;;;4997155;28;20192;-72
2022/09/25 07:48:46;;;;;;;27.40;19.40;;;10.90;99.90;;;;;;5014504;28;20218;-74
2022/09/25 07:51:13;;;;;;;32.30;20.00;;;11.00;99.90;;;;;;4997183;28;20774;-75
2022/09/25 07:53:41;;;;;;;32.70;20.47;;;11.20;99.90;;;;;;4997032;28;20270;-73
2022/09/25 07:56:10;;;;;;;30.10;20.17;;;11.30;99.90;;;;;;4996890;28;20234;-75
2022/09/25 07:58:38;;;;;;;30.37;20.00;;;11.30;99.90;;;;;;4996945;28;20201;-74
2022/09/25 08:01:09;;;;;;;28.93;19.83;;;11.50;99.90;;;;;;5013954;28;20188;-74
2022/09/25 08:03:36;;;;;;;31.17;18.80;;;11.60;99.90;;;;;;4996152;28;20227;-74
2022/09/25 08:06:10;;;;;;;29.03;19.00;;;11.70;99.90;;;;;;5014564;28;20208;-75
2022/09/25 08:08:39;;;;;;;29.70;19.10;;;11.80;99.90;;;;;;4980660;28;20637;-75
2022/09/25 08:11:11;;;;;;;30.93;19.83;;;12.00;99.90;;;;;;4973047;28;20586;-75
2022/09/25 08:13:40;;;;;;;29.17;19.63;;;12.10;99.90;;;;;;4990692;28;20255;-75
2022/09/25 08:16:12;;;;;;;29.83;19.13;;;12.10;99.90;;;;;;5003817;28;20200;-73
2022/09/25 08:18:40;;;;;;;31.47;19.07;;;12.20;99.90;;;;;;4986132;28;20662;-74
2022/09/25 08:21:09;;;;;;;29.67;19.60;;;12.10;99.90;;;;;;4976465;28;20209;-72
2022/09/25 08:23:36;;;;;;;29.83;19.07;;;12.30;99.90;;;;;;4991764;28;20208;-74
2022/09/25 08:26:02;;;;;;;30.77;19.60;;;12.40;99.90;;;;;;4973438;28;20235;-75
2022/09/25 08:28:29;;;;;;;29.73;19.30;;;12.60;99.90;;;;;;4992848;28;20200;-75
2022/09/25 08:30:58;;;;;;;27.97;19.03;;;12.80;99.90;;;;;;4988810;28;20229;-74
2022/09/25 08:33:26;;;;;;;29.53;18.73;;;13.00;99.90;;;;;;4983859;28;20216;-74
2022/09/25 08:35:57;;;;;;;27.13;18.03;;;13.10;99.90;;;;;;4981510;28;20201;-73
2022/09/25 08:38:25;;;;;;;26.97;18.20;;;13.30;99.90;;;;;;4960508;28;20206;-75
2022/09/25 08:41:16;;;;;;;26.93;18.53;;;13.30;99.90;;;;;;4957241;28;20212;-75
2022/09/25 08:44:06;;;;;;;29.37;18.47;;;13.70;99.90;;;;;;4957218;28;20312;-75
2022/09/25 08:49:35;;;;;;;27.97;16.90;;;14.10;99.90;;;;;;4956981;28;20190;-74
2022/09/25 08:52:12;;;;;;;28.23;16.77;;;14.50;99.90;;;;;;4974285;28;20189;-74
2022/09/25 08:54:39;;;;;;;25.50;16.70;;;14.70;99.90;;;;;;4974375;28;20204;-75
2022/09/25 08:57:27;;;;;;;25.30;16.63;;;14.80;99.90;;;;;;4957082;28;20198;-76
2022/09/25 09:00:00;;;;;;;25.40;16.73;;;15.00;99.90;;;;;;4957371;28;20212;-76
2022/09/25 09:02:51;;;;;;;24.50;16.90;;;15.20;99.90;;;;;;4957494;28;20267;-74
2022/09/25 09:05:21;;;;;;;23.50;16.10;;;15.40;99.90;;;;;;4974161;28;20650;-74
2022/09/25 09:07:56;;;;;;;25.37;16.90;;;15.70;99.90;;;;;;4941078;28;20492;-74
2022/09/25 09:10:52;;;;;;;24.10;15.90;;;15.90;99.90;;;;;;4968980;28;20649;-77
2022/09/25 09:14:01;;;;;;;23.33;15.73;;;16.00;99.90;;;;;;4985167;28;20200;-77
2022/09/25 09:17:04;;;;;;;22.33;13.83;;;16.20;99.90;;;;;;4913100;29;20207;-77
2022/09/25 09:19:37;;;;;;;22.47;14.70;;;16.40;99.90;;;;;;4897550;29;20295;-79
2022/09/25 09:22:45;;;;;;;22.77;13.87;;;16.80;99.90;;;;;;4897407;29;20658;-78
2022/09/25 09:25:53;;;;;;;22.57;14.63;;;17.00;99.90;;;;;;4838613;29;20214;-76
2022/09/25 09:28:51;;;;;;;21.47;13.90;;;17.30;99.90;;;;;;4838836;29;20209;-75
2022/09/25 09:31:45;;;;;;;19.23;13.60;;;17.50;99.90;;;;;;4836922;29;20236;-76
2022/09/25 09:34:56;;;;;;;19.03;13.10;;;17.90;99.90;;;;;;4859011;29;20591;-75
2022/09/25 09:37:51;;;;;;;18.63;12.53;;;18.50;99.90;;;;;;4855353;29;20669;-75
2022/09/25 09:40:45;;;;;;;19.23;13.47;;;19.30;99.90;;;;;;4841723;29;20200;-75
2022/09/25 09:43:50;;;;;;;19.10;12.97;;;19.60;99.90;;;;;;4839775;29;20241;-77
2022/09/25 09:46:31;;;;;;;18.73;12.97;;;19.80;99.90;;;;;;4845440;29;20241;-77
2022/09/25 09:49:04;;;;;;;20.00;11.90;;;19.70;99.90;;;;;;4842367;29;20209;-75
2022/09/25 09:51:38;;;;;;;17.57;12.10;;;19.90;99.90;;;;;;4842210;29;20206;-76
2022/09/25 09:54:16;;;;;;;19.03;12.10;;;20.10;99.90;;;;;;4894719;29;20210;-74
2022/09/25 09:56:54;;;;;;;18.37;11.80;;;19.90;99.90;;;;;;4944815;28;20194;-81
2022/09/25 09:59:30;;;;;;;14.93;11.27;;;19.80;99.90;;;;;;4967065;23;20193;-74
2022/09/25 10:02:17;;;;;;;16.27;11.87;;;19.70;99.90;;;;;;5011962;28;20223;-76
2022/09/25 10:04:46;;;;;;;17.87;11.40;;;19.90;99.90;;;;;;5011616;28;20227;-75
2022/09/25 10:07:17;;;;;;;17.33;12.20;;;20.10;99.90;;;;;;5011301;28;20197;-74
2022/09/25 10:09:47;;;;;;;18.23;12.23;;;20.40;99.90;;;;;;5010139;28;20200;-73
2022/09/25 10:12:34;;;;;;;15.03;11.07;;;20.70;99.90;;;;;;4993467;28;20215;-76
2022/09/25 10:15:06;;;;;;;18.70;11.67;;;21.10;99.90;;;;;;4993721;28;20200;-80
2022/09/25 10:18:14;;;;;;;16.43;11.37;;;21.20;99.90;;;;;;5005751;23;20224;-80
2022/09/25 10:20:46;;;;;;;17.93;12.00;;;21.60;99.90;;;;;;5018078;28;20207;-81
2022/09/25 10:23:34;;;;;;;15.47;11.53;;;22.00;99.90;;;;;;4983316;28;20220;-80
2022/09/25 10:26:01;;;;;;;16.53;10.80;;;22.30;99.90;;;;;;5028224;28;20210;-77
2022/09/25 10:28:33;;;;;;;16.00;10.53;;;22.80;99.90;;;;;;5023830;28;20192;-79
2022/09/25 10:31:01;;;;;;;13.67;9.50;;;23.20;99.90;;;;;;5018485;28;20559;-75
2022/09/25 10:33:30;;;;;;;13.33;10.30;;;23.30;99.90;;;;;;5018291;28;20235;-82
2022/09/25 10:35:57;;;;;;;13.47;10.13;;;23.00;99.90;;;;;;5017695;28;20191;-78
2022/09/25 10:38:38;;;;;;;13.67;9.57;;;23.10;99.90;;;;;;5019421;28;20188;-77
2022/09/25 10:41:17;;;;;;;14.48;9.45;;;23.40;99.90;;;;;;5017936;28;20200;-78
2022/09/25 10:43:54;;;;;;;11.23;8.37;;;23.80;99.90;;;;;;5018309;28;20219;-80
2022/09/25 10:52:14;;;;;;;12.95;9.25;;;24.30;96.70;;;;;;5018034;28;20207;-76
2022/09/25 10:54:41;;;;;;;12.10;8.87;;;24.40;96.50;;;;;;5018071;28;20196;-78
2022/09/25 10:57:16;;;;;;;12.48;8.48;;;24.50;94.90;;;;;;5017740;28;20210;-76
2022/09/25 10:59:51;;;;;;;9.95;7.82;;;24.80;94.30;;;;;;5017747;28;20512;-77
2022/09/25 11:02:40;;;;;;;10.77;8.30;;;25.00;92.60;;;;;;5017651;28;20210;-78
2022/09/25 11:05:20;;;;;;;12.05;8.90;;;25.00;91.70;;;;;;5017217;28;20200;-78
2022/09/25 11:07:54;;;;;;;12.73;8.98;;;25.00;91.20;;;;;;5017113;28;20198;-80
2022/09/25 11:10:26;;;;;;;12.00;7.88;;;25.60;91.30;;;;;;5001281;28;20202;-80
2022/09/25 11:12:55;;;;;;;11.60;8.10;;;26.00;90.20;;;;;;5017340;28;20664;-82
2022/09/25 11:15:33;;;;;;;11.10;8.18;;;26.00;87.20;;;;;;5017124;28;20195;-76
2022/09/25 11:18:05;;;;;;;10.27;7.47;;;25.80;85.00;;;;;;5017341;28;20253;-79
2022/09/25 11:20:32;;;;;;;8.48;6.55;;;25.80;86.40;;;;;;5001581;28;20671;-79
2022/09/25 11:23:07;;;;;;;8.50;6.57;;;26.10;83.50;;;;;;5000305;28;20254;-76
2022/09/25 11:25:57;;;;;;;8.23;6.10;;;26.30;80.50;;;;;;5016991;28;20200;-76
2022/09/25 11:28:43;;;;;;;8.02;5.72;;;26.80;76.40;;;;;;5016848;28;20199;-75
2022/09/25 11:31:28;;;;;;;8.50;5.20;;;27.40;72.70;;;;;;5016827;28;20199;-78
2022/09/25 11:36:58;;;;;;;5.90;4.60;;;28.20;65.80;;;;;;5061907;22;20684;-76
2022/09/25 11:43:04;;;;;;;5.35;4.45;;;29.10;61.30;;;;;;5036771;28;20277;-76
2022/09/25 11:45:40;;;;;;;8.20;4.53;;;29.80;59.60;;;;;;5015258;28;20209;-77
2022/09/25 11:48:27;;;;;;;8.73;4.85;;;30.20;57.40;;;;;;5054211;28;20567;-79
2022/09/25 11:54:59;;;;;;;5.35;4.25;;;30.00;58.10;;;;;;5108335;22;20226;-78
2022/09/25 11:57:50;;;;;;;5.38;4.65;;;30.50;55.50;;;;;;5007290;23;20231;-78
2022/09/25 12:00:35;;;;;;;5.05;4.13;;;29.90;54.60;;;;;;5016168;28;20204;-76
2022/09/25 12:03:49;;;;;;;6.07;4.25;;;29.70;55.10;;;;;;5015945;28;20223;-77
2022/09/25 12:06:47;;;;;;;7.80;4.68;;;29.80;55.60;;;;;;5032838;28;20223;-78
2022/09/25 12:09:53;;;;;;;6.20;4.75;;;29.80;55.40;;;;;;5032930;28;20222;-79
2022/09/25 12:12:52;;;;;;;6.97;5.28;;;28.50;56.80;;;;;;5033033;28;20199;-82
2022/09/25 12:15:21;;;;;;;5.75;4.95;;;26.70;59.60;;;;;;4940838;28;20311;-83
2022/09/25 12:17:48;;;;;;;5.88;5.13;;;27.10;60.50;;;;;;4972868;28;20260;-85
2022/09/25 12:20:53;;;;;;;6.57;5.15;;;27.50;60.30;;;;;;4972975;28;20666;-79
2022/09/25 12:23:34;;;;;;;8.93;5.93;;;27.80;59.60;;;;;;4972274;28;20224;-75
2022/09/25 12:26:25;;;;;;;8.55;5.95;;;27.90;60.10;;;;;;4956934;28;20295;-84
2022/09/25 12:29:27;;;;;;;7.20;5.68;;;28.50;59.30;;;;;;4972768;28;20301;-76
2022/09/25 12:32:04;;;;;;;7.00;5.53;;;29.30;58.40;;;;;;4972539;28;20211;-75
2022/09/25 12:34:55;;;;;;;8.27;6.15;;;29.20;58.20;;;;;;4940677;28;20300;-82
2022/09/25 12:37:42;;;;;;;6.95;5.80;;;29.40;57.60;;;;;;4972264;28;20275;-75
2022/09/25 12:40:42;;;;;;;10.05;6.40;;;28.20;59.30;;;;;;4956402;28;20205;-76
2022/09/25 12:43:40;;;;;;;8.52;6.00;;;27.00;61.80;;;;;;4896122;29;20673;-79
2022/09/25 12:46:16;;;;;;;9.27;6.43;;;26.40;64.20;;;;;;4896075;29;20543;-80
2022/09/25 12:49:18;;;;;;;8.30;6.60;;;25.90;64.90;;;;;;4895289;29;20230;-74
2022/09/25 12:51:50;;;;;;;10.23;6.45;;;25.00;66.70;;;;;;4889891;29;20199;-77
2022/09/25 12:54:23;;;;;;;8.93;6.72;;;24.20;69.60;;;;;;4914914;29;20208;-78
2022/09/25 12:57:00;;;;;;;9.88;6.55;;;23.80;71.00;;;;;;4914464;29;20223;-76
2022/09/25 12:59:45;;;;;;;9.77;6.32;;;23.80;71.70;;;;;;4914709;29;20195;-76
2022/09/25 13:02:36;;;;;;;10.40;7.40;;;23.70;72.10;;;;;;4914737;29;20297;-76
2022/09/25 13:05:32;;;;;;;8.82;6.28;;;23.40;73.60;;;;;;4898731;29;20211;-77
2022/09/25 13:08:26;;;;;;;8.03;6.10;;;23.00;75.30;;;;;;4883332;29;20669;-80
2022/09/25 13:11:14;;;;;;;9.63;6.93;;;22.70;76.30;;;;;;4914548;29;20210;-81
2022/09/25 13:13:48;;;;;;;9.23;6.60;;;22.40;77.10;;;;;;4899139;29;20211;-79
2022/09/25 13:16:15;;;;;;;8.13;6.20;;;22.10;77.50;;;;;;4914428;29;20200;-77
2022/09/25 13:18:47;;;;;;;8.53;6.50;;;22.10;78.20;;;;;;4898712;29;20207;-78
2022/09/25 13:21:30;;;;;;;8.17;6.10;;;22.10;78.50;;;;;;4993198;28;20200;-79
2022/09/25 13:23:58;;;;;;;8.43;6.20;;;22.10;78.80;;;;;;5012888;28;20223;-83
2022/09/25 13:26:26;;;;;;;7.30;5.73;;;21.50;79.30;;;;;;4995331;28;20590;-80
2022/09/25 13:29:12;;;;;;;7.87;6.00;;;21.50;81.40;;;;;;5012958;28;20254;-77
2022/09/25 13:31:46;;;;;;;8.07;5.80;;;21.30;81.00;;;;;;4996461;28;20196;-83
2022/09/25 13:34:25;;;;;;;7.13;5.20;;;21.10;80.50;;;;;;4995178;28;20196;-84
2022/09/25 13:36:56;;;;;;;7.43;5.43;;;21.00;82.00;;;;;;5012757;28;20190;-84
2022/09/25 13:42:37;;;;;;;7.20;5.40;;;20.70;83.30;;;;;;5011691;28;20535;-77
2022/09/25 13:45:24;;;;;;;9.10;5.70;;;20.60;84.50;;;;;;4994952;28;20595;-80
2022/09/25 13:47:59;;;;;;;7.60;5.63;;;20.60;84.80;;;;;;4995352;28;20188;-78